Time;durP1;ratioP1;P1;durP2;ratioP2;P2;SDS_P1;SDS_P2;PMS_P1;PMS_P2;Temp;Humidity;BMP_temperature;BMP_pressure;BME280_temperature;BME280_humidity;BME280_pressure;Samples;Min_cycle;Max_cycle;Signal;HPM_P1;HPM_P2
2023/01/29 00:02:26;;;;;;;15.07;10.45;;;29.50;99.90;;;;;;5064377;28;20205;-81
2023/01/29 00:04:58;;;;;;;17.33;10.10;;;29.60;99.90;;;;;;5054752;28;20563;-82
2023/01/29 00:07:29;;;;;;;14.63;8.60;;;29.60;99.90;;;;;;5070637;28;20613;-81
2023/01/29 00:10:02;;;;;;;14.85;7.95;;;29.50;99.90;;;;;;5074644;28;20185;-82
2023/01/29 00:12:34;;;;;;;14.75;8.80;;;29.50;99.90;;;;;;5071981;28;20698;-81
2023/01/29 00:15:05;;;;;;;12.32;7.93;;;29.60;99.90;;;;;;5065050;28;20639;-80
2023/01/29 00:17:36;;;;;;;18.20;7.82;;;29.60;99.90;;;;;;5073008;28;20287;-80
2023/01/29 00:20:08;;;;;;;13.50;7.15;;;29.60;99.90;;;;;;5074001;28;20227;-80
2023/01/29 00:22:39;;;;;;;13.43;7.30;;;29.70;99.90;;;;;;5073843;28;20214;-80
2023/01/29 00:25:13;;;;;;;15.93;8.15;;;29.80;99.90;;;;;;5074632;28;20287;-80
2023/01/29 00:27:44;;;;;;;14.73;8.25;;;29.80;99.90;;;;;;5072614;28;20196;-80
2023/01/29 00:30:18;;;;;;;12.40;8.32;;;29.90;99.90;;;;;;5061181;28;20196;-80
2023/01/29 00:32:49;;;;;;;13.00;9.35;;;29.90;99.90;;;;;;5081990;28;20808;-80
2023/01/29 00:35:20;;;;;;;15.18;9.45;;;29.80;99.90;;;;;;5083160;28;20196;-81
2023/01/29 00:37:54;;;;;;;13.80;8.13;;;29.80;99.90;;;;;;5057705;28;20200;-82
2023/01/29 00:40:27;;;;;;;15.05;7.60;;;29.90;99.90;;;;;;5074408;28;20195;-81
2023/01/29 00:46:05;;;;;;;10.50;7.00;;;30.10;99.90;;;;;;5064360;28;20204;-82
2023/01/29 00:48:37;;;;;;;17.33;7.22;;;30.20;99.90;;;;;;5072322;28;20204;-81
2023/01/29 00:51:08;;;;;;;14.75;6.97;;;30.20;99.90;;;;;;5073627;28;20219;-82
2023/01/29 00:53:39;;;;;;;18.73;7.68;;;30.30;99.90;;;;;;5073914;28;20200;-81
2023/01/29 00:56:13;;;;;;;14.75;7.20;;;30.40;99.90;;;;;;5074700;28;20673;-82
2023/01/29 00:58:44;;;;;;;16.48;7.22;;;30.40;99.90;;;;;;5073297;28;20261;-82
2023/01/29 01:01:15;;;;;;;14.82;6.82;;;30.40;99.90;;;;;;5074633;28;20565;-82
2023/01/29 01:03:44;;;;;;;16.25;7.85;;;30.40;99.90;;;;;;5073372;28;20306;-82
2023/01/29 01:06:15;;;;;;;16.77;7.85;;;30.40;99.90;;;;;;5074286;28;20227;-82
2023/01/29 01:11:42;;;;;;;12.63;7.38;;;30.20;99.90;;;;;;5021858;28;20232;-82
2023/01/29 01:14:13;;;;;;;13.75;7.93;;;30.20;99.90;;;;;;5090879;28;20279;-81
2023/01/29 01:16:44;;;;;;;20.88;8.18;;;30.10;99.90;;;;;;5094378;28;20255;-81
2023/01/29 01:19:16;;;;;;;17.77;7.88;;;30.00;99.90;;;;;;5089834;28;20265;-81
2023/01/29 01:21:47;;;;;;;16.25;8.10;;;29.90;99.90;;;;;;5082785;28;20255;-81
2023/01/29 01:24:19;;;;;;;15.82;7.82;;;29.90;99.90;;;;;;5058522;28;20198;-81
2023/01/29 01:26:51;;;;;;;16.25;7.15;;;29.80;99.90;;;;;;5062038;28;20192;-82
2023/01/29 01:29:23;;;;;;;15.10;7.50;;;30.00;99.90;;;;;;5074294;28;20607;-82
2023/01/29 01:31:56;;;;;;;13.00;7.45;;;30.00;99.90;;;;;;5073468;28;20234;-81
2023/01/29 01:34:27;;;;;;;14.38;7.30;;;29.90;99.90;;;;;;5076818;28;20235;-82
2023/01/29 01:36:59;;;;;;;14.90;7.60;;;30.00;99.90;;;;;;5082979;28;20659;-81
2023/01/29 01:39:30;;;;;;;10.90;7.85;;;30.00;99.90;;;;;;5067567;28;20287;-82
2023/01/29 01:42:03;;;;;;;14.18;7.57;;;30.10;99.90;;;;;;5072919;28;20208;-83
2023/01/29 01:44:57;;;;;;;14.15;8.30;;;30.10;99.90;;;;;;5072550;28;20299;-82
2023/01/29 01:47:32;;;;;;;17.30;8.68;;;30.20;99.90;;;;;;5071814;28;20717;-81
2023/01/29 01:50:07;;;;;;;17.80;9.00;;;30.40;99.90;;;;;;5070747;28;20202;-81
2023/01/29 01:52:43;;;;;;;20.92;7.53;;;30.50;99.90;;;;;;5065502;28;20214;-81
2023/01/29 01:55:18;;;;;;;13.43;7.57;;;30.60;99.90;;;;;;5081424;28;20254;-82
2023/01/29 01:57:54;;;;;;;15.15;7.32;;;30.60;99.90;;;;;;5076160;28;20874;-82
2023/01/29 02:00:26;;;;;;;18.80;7.30;;;30.50;99.90;;;;;;5061344;28;20241;-81
2023/01/29 02:11:26;;;;;;;12.85;7.63;;;30.70;99.90;;;;;;5064092;28;20202;-81
2023/01/29 02:14:00;;;;;;;12.90;8.27;;;30.70;99.90;;;;;;5062358;28;20196;-81
2023/01/29 02:16:31;;;;;;;12.75;7.78;;;30.70;99.90;;;;;;5073599;28;20572;-81
2023/01/29 02:19:02;;;;;;;13.40;7.40;;;30.70;99.90;;;;;;5072507;28;20208;-83
2023/01/29 02:22:02;;;;;;;10.88;6.95;;;30.60;99.90;;;;;;5056422;28;20192;-82
2023/01/29 02:25:08;;;;;;;13.52;7.65;;;30.50;99.90;;;;;;5069532;28;20196;-82
2023/01/29 02:27:58;;;;;;;9.95;6.47;;;30.50;99.90;;;;;;5057124;28;20195;-84
2023/01/29 02:30:38;;;;;;;13.63;6.63;;;30.50;99.90;;;;;;5072833;28;20238;-84
2023/01/29 02:33:20;;;;;;;12.88;6.10;;;30.40;99.90;;;;;;5064976;28;21726;-83
2023/01/29 02:35:58;;;;;;;14.25;6.32;;;30.40;99.90;;;;;;5077504;28;20214;-83
2023/01/29 02:38:38;;;;;;;15.48;8.18;;;30.50;99.90;;;;;;5077503;28;20288;-83
2023/01/29 02:41:15;;;;;;;10.40;6.07;;;30.40;99.90;;;;;;5067291;28;20199;-82
2023/01/29 02:43:54;;;;;;;10.10;5.80;;;30.20;99.90;;;;;;5068469;28;20222;-83
2023/01/29 02:46:34;;;;;;;10.93;6.03;;;30.20;99.90;;;;;;5064583;28;20196;-84
2023/01/29 02:49:12;;;;;;;10.65;5.22;;;30.20;99.90;;;;;;5058321;28;20238;-84
2023/01/29 02:51:52;;;;;;;9.93;5.20;;;30.20;99.90;;;;;;5056393;28;20577;-83
2023/01/29 02:54:26;;;;;;;7.93;4.15;;;30.20;99.90;;;;;;5073699;28;20348;-83
2023/01/29 02:57:00;;;;;;;8.68;4.50;;;30.20;99.90;;;;;;5073957;28;20213;-83
2023/01/29 02:59:38;;;;;;;9.32;4.40;;;30.20;99.90;;;;;;5054593;28;20206;-83
2023/01/29 03:02:16;;;;;;;8.15;4.45;;;30.20;99.90;;;;;;5068347;28;20214;-83
2023/01/29 03:04:51;;;;;;;12.07;4.82;;;30.20;99.90;;;;;;5061328;28;20191;-83
2023/01/29 03:10:15;;;;;;;11.55;4.80;;;30.30;99.90;;;;;;5073634;28;20564;-84
2023/01/29 03:12:51;;;;;;;11.95;4.40;;;30.30;99.90;;;;;;5071930;28;20227;-83
2023/01/29 03:15:27;;;;;;;11.50;4.78;;;30.30;99.90;;;;;;5070312;28;20195;-82
2023/01/29 03:18:05;;;;;;;11.73;4.13;;;30.20;99.90;;;;;;5069882;28;20198;-82
2023/01/29 03:20:40;;;;;;;9.77;3.97;;;30.30;99.90;;;;;;5058435;28;20224;-82
2023/01/29 03:23:22;;;;;;;10.27;3.58;;;30.20;99.90;;;;;;5070704;28;20187;-83
2023/01/29 03:34:27;;;;;;;9.00;3.65;;;30.30;99.90;;;;;;5070505;28;20226;-83
2023/01/29 03:37:03;;;;;;;11.65;3.33;;;30.30;99.90;;;;;;5074377;28;20195;-82
2023/01/29 03:39:35;;;;;;;9.93;3.60;;;30.20;99.90;;;;;;5075215;28;20219;-82
2023/01/29 03:42:15;;;;;;;8.80;2.90;;;30.20;99.90;;;;;;5060546;28;20232;-84
2023/01/29 03:44:54;;;;;;;10.82;3.42;;;30.10;99.90;;;;;;5067545;28;20686;-83
2023/01/29 03:47:34;;;;;;;10.07;3.08;;;30.00;99.90;;;;;;5061147;28;20211;-83
2023/01/29 03:50:13;;;;;;;9.20;3.60;;;30.00;99.90;;;;;;5053334;28;20188;-83
2023/01/29 03:52:52;;;;;;;9.95;3.67;;;30.00;99.90;;;;;;5063661;28;20224;-82
2023/01/29 03:55:29;;;;;;;10.60;3.38;;;30.00;99.90;;;;;;5050671;28;20288;-82
2023/01/29 03:58:02;;;;;;;9.75;3.70;;;30.10;99.90;;;;;;5059421;28;20225;-82
2023/01/29 04:00:36;;;;;;;10.25;5.18;;;30.20;99.90;;;;;;5070005;28;20196;-82
2023/01/29 04:03:13;;;;;;;12.02;7.88;;;30.20;99.90;;;;;;5065526;28;20673;-82
2023/01/29 04:05:51;;;;;;;12.05;8.30;;;30.30;99.90;;;;;;5053869;28;20200;-82
2023/01/29 04:08:29;;;;;;;14.27;8.95;;;30.40;99.90;;;;;;5066522;28;20678;-81
2023/01/29 04:11:04;;;;;;;11.98;9.10;;;30.40;99.90;;;;;;5073510;28;20202;-82
2023/01/29 04:13:37;;;;;;;12.32;8.32;;;30.30;99.90;;;;;;5074434;28;20266;-83
2023/01/29 04:16:13;;;;;;;10.50;7.78;;;30.30;99.90;;;;;;5064811;28;20275;-82
2023/01/29 04:18:49;;;;;;;11.15;7.50;;;30.20;99.90;;;;;;5061959;28;20582;-82
2023/01/29 04:21:22;;;;;;;10.25;7.38;;;30.20;99.90;;;;;;5064525;28;20191;-81
2023/01/29 04:23:53;;;;;;;10.13;6.70;;;30.20;99.90;;;;;;5072449;28;20651;-82
2023/01/29 04:26:41;;;;;;;11.63;5.90;;;30.20;99.90;;;;;;5058603;28;20312;-82
2023/01/29 04:29:24;;;;;;;9.73;6.20;;;30.30;99.90;;;;;;5068163;28;20192;-83
2023/01/29 04:32:04;;;;;;;8.23;5.88;;;30.40;99.90;;;;;;5055194;28;20616;-82
2023/01/29 04:34:45;;;;;;;8.68;5.97;;;30.50;99.90;;;;;;5069782;28;20204;-82
2023/01/29 04:37:25;;;;;;;5.90;4.75;;;30.50;99.90;;;;;;5062558;28;20200;-83
2023/01/29 04:40:04;;;;;;;8.32;5.00;;;30.50;99.90;;;;;;5070375;28;20192;-83
2023/01/29 04:42:42;;;;;;;7.85;5.30;;;30.40;99.90;;;;;;5064543;28;20563;-82
2023/01/29 04:45:19;;;;;;;6.85;4.95;;;30.50;99.90;;;;;;5061329;28;20287;-81
2023/01/29 04:47:59;;;;;;;10.25;5.22;;;30.40;99.90;;;;;;5066039;28;20223;-82
2023/01/29 04:50:36;;;;;;;8.68;5.25;;;30.30;99.90;;;;;;5060214;28;20599;-82
2023/01/29 04:53:14;;;;;;;13.32;5.53;;;30.30;99.90;;;;;;5059810;28;20704;-83
2023/01/29 04:55:51;;;;;;;8.23;5.13;;;30.30;99.90;;;;;;5072817;28;20655;-83
2023/01/29 04:58:28;;;;;;;10.13;5.82;;;30.30;99.90;;;;;;5071880;28;20282;-83
2023/01/29 05:01:03;;;;;;;10.60;5.38;;;30.30;99.90;;;;;;5070602;28;20191;-82
2023/01/29 05:03:36;;;;;;;10.43;5.70;;;30.20;99.90;;;;;;5082035;28;20199;-83
2023/01/29 05:06:09;;;;;;;10.25;5.95;;;30.10;99.90;;;;;;5086348;28;20192;-83
2023/01/29 05:08:43;;;;;;;11.55;6.50;;;30.00;99.90;;;;;;5073771;28;20206;-83
2023/01/29 05:11:14;;;;;;;12.18;6.78;;;30.00;99.90;;;;;;5073502;28;20200;-84
2023/01/29 05:13:46;;;;;;;8.73;6.03;;;30.00;99.90;;;;;;5072913;28;20265;-83
2023/01/29 05:16:21;;;;;;;12.68;6.22;;;29.90;99.90;;;;;;5068997;28;20566;-84
2023/01/29 05:18:52;;;;;;;14.30;6.60;;;29.80;99.90;;;;;;5066076;28;20196;-81
2023/01/29 05:21:25;;;;;;;12.07;6.20;;;29.70;99.90;;;;;;5063749;28;20195;-82
2023/01/29 05:24:19;;;;;;;10.35;5.90;;;29.60;99.90;;;;;;5064636;28;20200;-81
2023/01/29 05:29:39;;;;;;;11.70;6.55;;;29.40;99.90;;;;;;5069694;28;20215;-82
2023/01/29 05:32:10;;;;;;;11.15;6.82;;;29.40;99.90;;;;;;5072647;28;20196;-81
2023/01/29 05:34:41;;;;;;;13.88;7.68;;;29.20;99.90;;;;;;5071876;28;20259;-81
2023/01/29 05:37:12;;;;;;;12.25;7.13;;;29.10;99.90;;;;;;5056282;28;20686;-81
2023/01/29 05:39:45;;;;;;;11.75;7.13;;;29.10;99.90;;;;;;5058729;28;20197;-81
2023/01/29 05:42:16;;;;;;;11.95;7.05;;;29.10;99.90;;;;;;5071749;28;20215;-81
2023/01/29 05:44:47;;;;;;;11.55;7.32;;;29.10;99.90;;;;;;5061531;28;20228;-81
2023/01/29 05:47:21;;;;;;;12.25;7.07;;;29.10;99.90;;;;;;5069565;28;20283;-81
2023/01/29 05:49:52;;;;;;;13.10;7.45;;;29.10;99.90;;;;;;5071880;28;20195;-80
2023/01/29 05:52:23;;;;;;;13.30;7.20;;;29.10;99.90;;;;;;5065717;28;20204;-80
2023/01/29 05:54:56;;;;;;;10.10;7.10;;;29.20;99.90;;;;;;5071915;28;20210;-79
2023/01/29 05:57:29;;;;;;;11.27;6.63;;;29.20;99.90;;;;;;5071177;28;20291;-82
2023/01/29 06:00:00;;;;;;;10.80;6.47;;;29.30;99.90;;;;;;5071267;28;20286;-81
2023/01/29 06:02:33;;;;;;;13.60;6.80;;;29.30;99.90;;;;;;5074956;28;20658;-82
2023/01/29 06:05:04;;;;;;;13.77;7.60;;;29.30;99.90;;;;;;5074379;28;20214;-82
2023/01/29 06:07:34;;;;;;;14.38;7.10;;;29.20;99.90;;;;;;5071325;28;20200;-82
2023/01/29 06:10:09;;;;;;;12.05;7.25;;;29.30;99.90;;;;;;5071233;28;20487;-82
2023/01/29 06:12:40;;;;;;;13.10;7.35;;;29.30;99.90;;;;;;5086224;28;20274;-81
2023/01/29 06:15:11;;;;;;;9.05;5.75;;;29.20;99.90;;;;;;5061306;28;20544;-82
2023/01/29 06:17:42;;;;;;;7.47;5.22;;;29.20;99.90;;;;;;5069685;28;20200;-82
2023/01/29 06:20:18;;;;;;;5.78;4.50;;;29.20;99.90;;;;;;5071061;28;20228;-81
2023/01/29 06:22:49;;;;;;;8.13;4.35;;;29.10;99.90;;;;;;5071524;28;20206;-82
2023/01/29 06:25:23;;;;;;;5.68;4.82;;;29.10;99.90;;;;;;5067785;28;20199;-81
2023/01/29 06:27:54;;;;;;;6.65;4.75;;;29.10;99.90;;;;;;5063507;28;20200;-81
2023/01/29 06:30:25;;;;;;;7.18;5.22;;;29.10;99.90;;;;;;5068314;28;20199;-82
2023/01/29 06:33:01;;;;;;;7.38;5.10;;;29.10;99.90;;;;;;5070242;28;20203;-81
2023/01/29 06:35:32;;;;;;;7.95;4.97;;;29.00;99.90;;;;;;5071045;28;20249;-81
2023/01/29 06:38:03;;;;;;;9.18;5.68;;;29.10;99.90;;;;;;5071787;28;20202;-82
2023/01/29 06:40:36;;;;;;;10.02;5.70;;;29.10;99.90;;;;;;5070616;28;20200;-82
2023/01/29 06:43:07;;;;;;;8.52;5.75;;;29.10;99.90;;;;;;5085889;28;20274;-80
2023/01/29 06:45:38;;;;;;;7.35;6.03;;;29.10;99.90;;;;;;5072796;28;20198;-82
2023/01/29 06:48:12;;;;;;;9.35;5.57;;;29.00;99.90;;;;;;5072708;28;20242;-82
2023/01/29 06:50:42;;;;;;;6.40;4.93;;;29.00;99.90;;;;;;5068106;28;20255;-82
2023/01/29 06:53:14;;;;;;;5.97;4.40;;;29.00;99.90;;;;;;5075466;28;20665;-82
2023/01/29 06:55:52;;;;;;;6.20;4.13;;;28.90;99.90;;;;;;5064595;28;20279;-82
2023/01/29 06:58:25;;;;;;;5.53;4.65;;;28.90;99.90;;;;;;5051343;28;20706;-82
2023/01/29 07:00:56;;;;;;;5.55;4.05;;;28.90;99.90;;;;;;5059355;28;20199;-82
2023/01/29 07:03:27;;;;;;;7.28;4.13;;;28.80;99.90;;;;;;5070870;28;20202;-81
2023/01/29 07:06:14;;;;;;;5.93;4.30;;;28.80;99.90;;;;;;5070183;28;20260;-82
2023/01/29 07:08:51;;;;;;;5.57;4.55;;;28.80;99.90;;;;;;5079209;28;20204;-81
2023/01/29 07:11:24;;;;;;;6.07;4.18;;;28.80;99.90;;;;;;5077913;28;20287;-82
2023/01/29 07:13:55;;;;;;;6.05;4.50;;;28.80;99.90;;;;;;5075839;28;20219;-81
2023/01/29 07:16:26;;;;;;;6.10;4.20;;;28.80;99.90;;;;;;5073941;28;20192;-79
2023/01/29 07:19:04;;;;;;;6.53;4.72;;;28.80;99.90;;;;;;5071934;28;20707;-80
2023/01/29 07:21:35;;;;;;;5.35;4.15;;;28.80;99.90;;;;;;5065414;28;20204;-81
2023/01/29 07:24:06;;;;;;;6.05;4.15;;;28.80;99.90;;;;;;5054773;28;20184;-82
2023/01/29 07:26:39;;;;;;;7.10;4.18;;;28.80;99.90;;;;;;5060977;28;20677;-82
2023/01/29 07:29:11;;;;;;;5.28;3.80;;;28.80;99.90;;;;;;5067839;28;20655;-81
2023/01/29 07:31:41;;;;;;;4.65;4.15;;;28.80;99.90;;;;;;5064338;28;20197;-80
2023/01/29 07:34:12;;;;;;;5.38;4.15;;;28.80;99.90;;;;;;5062972;28;20306;-81
2023/01/29 07:36:44;;;;;;;6.65;5.95;;;28.80;99.90;;;;;;5066687;28;20195;-81
2023/01/29 07:39:15;;;;;;;7.55;5.28;;;28.80;99.90;;;;;;5071581;28;20412;-81
2023/01/29 07:41:48;;;;;;;8.13;4.97;;;28.70;99.90;;;;;;5064167;28;20199;-80
2023/01/29 07:44:19;;;;;;;13.20;5.43;;;28.70;99.90;;;;;;5074051;28;20211;-80
2023/01/29 07:46:50;;;;;;;5.63;4.47;;;28.70;99.90;;;;;;5077236;28;20202;-80
2023/01/29 07:49:21;;;;;;;6.97;4.72;;;28.70;99.90;;;;;;5069746;28;20287;-81
2023/01/29 07:51:52;;;;;;;9.05;6.10;;;28.70;99.90;;;;;;5067512;28;20200;-81
2023/01/29 07:54:23;;;;;;;7.97;6.10;;;28.70;99.90;;;;;;5076675;28;20705;-82
2023/01/29 07:56:57;;;;;;;10.00;5.30;;;28.70;99.90;;;;;;5074874;28;20275;-81
2023/01/29 07:59:28;;;;;;;5.78;4.72;;;28.70;99.90;;;;;;5077810;28;20208;-81
2023/01/29 08:01:58;;;;;;;6.55;4.70;;;28.60;99.90;;;;;;5081125;28;20229;-82
2023/01/29 08:04:29;;;;;;;7.13;4.82;;;28.60;99.90;;;;;;5081318;28;20282;-81
2023/01/29 08:07:03;;;;;;;5.57;4.63;;;28.60;99.90;;;;;;5076280;28;20631;-80
2023/01/29 08:09:34;;;;;;;6.13;4.43;;;28.60;99.90;;;;;;5076170;28;20196;-80
2023/01/29 08:12:10;;;;;;;7.15;4.93;;;28.60;99.90;;;;;;5066040;28;20223;-81
2023/01/29 08:14:45;;;;;;;5.65;4.88;;;28.60;99.90;;;;;;5088953;28;20218;-81
2023/01/29 08:17:17;;;;;;;8.07;6.00;;;28.60;99.90;;;;;;5058482;28;20669;-80
2023/01/29 08:19:47;;;;;;;16.80;8.98;;;28.60;99.90;;;;;;5071809;28;20575;-80
2023/01/29 08:22:18;;;;;;;10.05;7.00;;;28.60;99.90;;;;;;5066781;28;20535;-80
2023/01/29 08:24:49;;;;;;;9.48;6.57;;;28.60;99.90;;;;;;5070906;28;20291;-80
2023/01/29 08:27:22;;;;;;;7.95;6.10;;;28.60;99.90;;;;;;5060170;28;20203;-80
2023/01/29 08:29:53;;;;;;;9.18;5.68;;;28.60;99.90;;;;;;5069581;28;20192;-80
2023/01/29 08:32:27;;;;;;;10.75;5.60;;;28.60;99.90;;;;;;5071281;28;20199;-80
2023/01/29 08:34:58;;;;;;;7.40;5.43;;;28.60;99.90;;;;;;5072810;28;20568;-81
2023/01/29 08:37:29;;;;;;;10.18;6.35;;;28.50;99.90;;;;;;5073679;28;20282;-81
2023/01/29 08:40:00;;;;;;;9.88;6.10;;;28.50;99.90;;;;;;5068037;28;20254;-81
2023/01/29 08:42:33;;;;;;;8.95;6.20;;;28.40;99.90;;;;;;5067279;28;20614;-82
2023/01/29 08:45:04;;;;;;;8.27;5.93;;;28.40;99.90;;;;;;5086932;28;20223;-81
2023/01/29 08:47:35;;;;;;;9.23;6.40;;;28.30;99.90;;;;;;5060025;28;20196;-81
2023/01/29 08:50:06;;;;;;;10.50;6.45;;;28.40;99.90;;;;;;5058586;28;20502;-81
2023/01/29 08:52:40;;;;;;;8.38;5.80;;;28.30;99.90;;;;;;5063884;28;20237;-82
2023/01/29 08:55:12;;;;;;;8.40;5.57;;;28.30;99.90;;;;;;5058776;28;20227;-80
2023/01/29 08:57:47;;;;;;;10.50;6.68;;;28.30;99.90;;;;;;5058715;28;20257;-80
2023/01/29 09:00:20;;;;;;;10.98;7.13;;;28.20;99.90;;;;;;5075887;28;20257;-80
2023/01/29 09:02:51;;;;;;;9.85;7.20;;;28.20;99.90;;;;;;5077537;28;20245;-81
2023/01/29 09:05:22;;;;;;;9.38;6.03;;;28.20;99.90;;;;;;5069407;28;20238;-80
2023/01/29 09:07:53;;;;;;;11.80;6.50;;;28.20;99.90;;;;;;5073344;28;20196;-81
2023/01/29 09:10:24;;;;;;;13.15;9.57;;;28.20;99.90;;;;;;5076151;28;20200;-81
2023/01/29 09:12:58;;;;;;;7.97;6.15;;;28.20;99.90;;;;;;5075023;28;20282;-81
2023/01/29 09:15:29;;;;;;;8.45;6.07;;;28.20;99.90;;;;;;5057271;28;20568;-80
2023/01/29 09:18:04;;;;;;;9.65;6.47;;;28.10;99.90;;;;;;5066691;28;20569;-79
2023/01/29 09:20:36;;;;;;;13.57;6.93;;;28.20;99.90;;;;;;5058226;28;20245;-81
2023/01/29 09:23:09;;;;;;;8.45;6.15;;;28.10;99.90;;;;;;5072724;28;20682;-81
2023/01/29 09:25:42;;;;;;;12.55;6.47;;;28.10;99.90;;;;;;5073083;28;20196;-80
2023/01/29 09:28:18;;;;;;;7.10;5.22;;;28.10;99.90;;;;;;5074414;28;20574;-81
2023/01/29 09:30:49;;;;;;;9.57;5.60;;;28.10;99.90;;;;;;5073412;28;20192;-80
2023/01/29 09:33:20;;;;;;;8.80;4.35;;;28.00;99.90;;;;;;5067766;28;20525;-81
2023/01/29 09:35:52;;;;;;;6.78;4.68;;;28.00;99.90;;;;;;5072288;28;20231;-81
2023/01/29 09:38:22;;;;;;;7.28;4.50;;;27.90;99.90;;;;;;5064658;28;20261;-81
2023/01/29 09:41:03;;;;;;;6.05;4.53;;;27.80;99.90;;;;;;5065916;28;20200;-80
2023/01/29 09:43:47;;;;;;;7.70;4.05;;;27.70;99.90;;;;;;5053882;28;20304;-81
2023/01/29 09:46:23;;;;;;;7.60;4.53;;;27.70;99.90;;;;;;5079552;28;20235;-80
2023/01/29 09:49:03;;;;;;;5.45;4.03;;;27.60;99.90;;;;;;5071843;28;20274;-80
2023/01/29 09:51:40;;;;;;;4.60;3.67;;;27.50;99.90;;;;;;5057098;28;20283;-81
2023/01/29 09:54:19;;;;;;;5.55;3.60;;;27.50;99.90;;;;;;5071776;28;20245;-80
2023/01/29 09:56:52;;;;;;;5.55;3.85;;;27.40;99.90;;;;;;5073842;28;20538;-80
2023/01/29 09:59:28;;;;;;;8.30;4.10;;;27.30;99.90;;;;;;5075798;28;20282;-81
2023/01/29 10:02:07;;;;;;;6.72;3.85;;;27.30;99.90;;;;;;5061306;28;20287;-81
2023/01/29 10:05:06;;;;;;;4.80;3.80;;;27.20;99.90;;;;;;5053413;28;20204;-80
2023/01/29 10:08:15;;;;;;;5.47;3.60;;;27.20;99.90;;;;;;5065505;28;20200;-81
2023/01/29 10:10:52;;;;;;;4.60;3.40;;;27.10;99.90;;;;;;5034394;28;20204;-81
2023/01/29 10:13:32;;;;;;;7.60;3.53;;;27.10;99.90;;;;;;5067652;28;20261;-81
2023/01/29 10:16:24;;;;;;;7.60;3.42;;;27.00;99.90;;;;;;5068070;28;20307;-81
2023/01/29 10:19:42;;;;;;;8.25;3.80;;;26.90;99.90;;;;;;5074827;28;20196;-81
2023/01/29 10:22:49;;;;;;;6.63;3.20;;;26.80;99.90;;;;;;5029549;28;20204;-81
2023/01/29 10:25:24;;;;;;;3.90;2.50;;;26.80;99.90;;;;;;5075187;28;20192;-80
2023/01/29 10:27:58;;;;;;;3.08;2.03;;;26.70;99.90;;;;;;5073534;28;20280;-81
2023/01/29 10:30:36;;;;;;;2.40;2.20;;;26.70;99.90;;;;;;5068621;28;20207;-82
2023/01/29 10:33:15;;;;;;;2.90;2.20;;;26.70;99.90;;;;;;5071290;28;20196;-82
2023/01/29 10:35:51;;;;;;;2.65;1.92;;;26.70;99.90;;;;;;5076973;28;20694;-81
2023/01/29 10:38:33;;;;;;;4.82;2.30;;;26.60;99.90;;;;;;5074439;28;20207;-82
2023/01/29 10:41:29;;;;;;;2.90;2.40;;;26.70;99.90;;;;;;5073751;28;20668;-81
2023/01/29 10:44:19;;;;;;;3.13;2.20;;;26.70;99.90;;;;;;5076006;28;20307;-81
2023/01/29 10:47:18;;;;;;;4.25;2.42;;;26.60;99.90;;;;;;5081607;28;20604;-82
2023/01/29 10:50:23;;;;;;;3.92;2.40;;;26.70;99.90;;;;;;5072723;28;20208;-80
2023/01/29 10:53:25;;;;;;;3.22;2.45;;;26.70;99.90;;;;;;5061947;28;20202;-82
2023/01/29 10:56:05;;;;;;;2.78;2.20;;;26.70;99.90;;;;;;5074219;28;20317;-81
2023/01/29 10:58:41;;;;;;;3.38;2.35;;;26.70;99.90;;;;;;5073791;28;20192;-80
2023/01/29 11:01:12;;;;;;;3.67;2.35;;;26.70;99.90;;;;;;5077694;28;20222;-82
2023/01/29 11:03:44;;;;;;;3.40;2.00;;;26.80;99.90;;;;;;5076670;28;20279;-81
2023/01/29 11:06:22;;;;;;;4.32;2.25;;;26.70;99.90;;;;;;5062111;28;20207;-81
2023/01/29 11:08:58;;;;;;;2.67;1.90;;;26.60;99.90;;;;;;5070633;28;20196;-80
2023/01/29 11:11:37;;;;;;;3.70;1.92;;;26.60;99.90;;;;;;5071663;28;22186;-81
2023/01/29 11:14:14;;;;;;;2.42;2.20;;;26.70;99.90;;;;;;5060437;28;20288;-81
2023/01/29 11:16:46;;;;;;;2.33;1.90;;;26.70;99.90;;;;;;5073054;28;20270;-81
2023/01/29 11:19:22;;;;;;;3.05;2.25;;;26.70;99.90;;;;;;5063279;28;20232;-81
2023/01/29 11:22:00;;;;;;;2.28;2.08;;;26.70;99.90;;;;;;5071210;28;20581;-80
2023/01/29 11:24:31;;;;;;;3.70;2.28;;;26.80;99.90;;;;;;5072836;28;20283;-81
2023/01/29 11:27:04;;;;;;;3.35;2.10;;;26.80;99.90;;;;;;5080157;28;20207;-82
2023/01/29 11:29:41;;;;;;;1.90;1.80;;;26.80;99.90;;;;;;5070186;28;20200;-81
2023/01/29 11:32:17;;;;;;;2.90;2.15;;;26.80;99.90;;;;;;5068711;28;20188;-79
2023/01/29 11:35:02;;;;;;;2.35;2.15;;;26.80;99.90;;;;;;5079611;28;20230;-81
2023/01/29 11:37:43;;;;;;;2.88;2.22;;;26.80;99.90;;;;;;5079990;28;20260;-81
2023/01/29 11:40:46;;;;;;;2.72;2.10;;;26.80;99.90;;;;;;5081494;28;20288;-81
2023/01/29 11:43:25;;;;;;;2.92;2.00;;;26.80;99.90;;;;;;5022974;28;20212;-81
2023/01/29 11:46:01;;;;;;;2.28;2.08;;;26.70;99.90;;;;;;5037572;28;20209;-82
2023/01/29 11:48:42;;;;;;;2.83;2.05;;;26.80;99.90;;;;;;5065839;28;20228;-80
2023/01/29 11:51:26;;;;;;;2.42;2.20;;;26.70;99.90;;;;;;5063338;28;20196;-81
2023/01/29 11:54:02;;;;;;;2.83;1.95;;;26.70;99.90;;;;;;5067927;28;20204;-81
2023/01/29 11:56:42;;;;;;;2.25;2.05;;;26.70;99.90;;;;;;5070456;28;20235;-81
2023/01/29 11:59:32;;;;;;;5.85;2.03;;;26.70;99.90;;;;;;5067252;28;20199;-81
2023/01/29 12:02:15;;;;;;;3.83;2.20;;;26.70;99.90;;;;;;5075520;28;20227;-81
2023/01/29 12:04:46;;;;;;;3.25;2.10;;;26.60;99.90;;;;;;5055478;28;20196;-81
2023/01/29 12:07:20;;;;;;;3.67;2.33;;;26.60;99.90;;;;;;5075404;28;20209;-81
2023/01/29 12:09:58;;;;;;;1.90;1.70;;;26.60;99.90;;;;;;5079239;28;20221;-81
2023/01/29 12:12:35;;;;;;;2.33;2.08;;;26.60;99.90;;;;;;5075485;28;20250;-81
2023/01/29 12:15:21;;;;;;;2.30;2.10;;;26.60;99.90;;;;;;5073861;28;20317;-81
2023/01/29 12:18:03;;;;;;;2.33;1.80;;;26.50;99.90;;;;;;5071517;28;20658;-80
2023/01/29 12:20:41;;;;;;;1.77;1.67;;;26.50;99.90;;;;;;5068816;28;20239;-80
2023/01/29 12:23:32;;;;;;;2.05;1.85;;;26.40;99.90;;;;;;5058059;28;20193;-81
2023/01/29 12:26:11;;;;;;;1.88;1.70;;;26.40;99.90;;;;;;5056147;28;20224;-80
2023/01/29 12:28:55;;;;;;;2.35;1.80;;;26.40;99.90;;;;;;5075255;28;20570;-81
2023/01/29 12:31:37;;;;;;;2.70;1.55;;;26.30;99.90;;;;;;5059246;28;20628;-81
2023/01/29 12:34:12;;;;;;;2.97;1.70;;;26.20;99.90;;;;;;5075350;28;20203;-82
2023/01/29 12:36:51;;;;;;;1.77;1.60;;;26.20;99.90;;;;;;5067425;28;20219;-80
2023/01/29 12:39:23;;;;;;;2.08;1.73;;;26.20;99.90;;;;;;5073360;28;20203;-80
2023/01/29 12:41:59;;;;;;;2.22;1.80;;;26.10;99.90;;;;;;5072337;28;20260;-81
2023/01/29 12:44:41;;;;;;;1.70;1.60;;;26.10;99.90;;;;;;5068687;28;20220;-81
2023/01/29 12:47:20;;;;;;;2.10;1.90;;;26.10;99.90;;;;;;5067676;28;20211;-80
2023/01/29 12:49:55;;;;;;;3.45;1.77;;;26.10;99.90;;;;;;5080502;28;20210;-81
2023/01/29 12:52:36;;;;;;;2.92;1.85;;;26.10;99.90;;;;;;5081421;28;20278;-81
2023/01/29 12:55:13;;;;;;;1.80;1.67;;;26.10;99.90;;;;;;5076601;28;20299;-81
2023/01/29 12:57:51;;;;;;;2.45;1.50;;;26.10;99.90;;;;;;5075114;28;20211;-81
2023/01/29 13:00:24;;;;;;;2.25;1.70;;;26.10;99.90;;;;;;5072036;28;20207;-80
2023/01/29 13:03:04;;;;;;;2.00;1.58;;;26.20;99.90;;;;;;5073924;28;20275;-81
2023/01/29 13:05:41;;;;;;;1.98;1.45;;;26.10;99.90;;;;;;5066632;28;20193;-81
2023/01/29 13:08:20;;;;;;;3.55;2.00;;;26.00;99.90;;;;;;5072140;28;20198;-81
2023/01/29 13:10:54;;;;;;;2.00;1.80;;;25.90;99.90;;;;;;5075803;28;20282;-81
2023/01/29 13:16:44;;;;;;;1.98;1.73;;;25.80;99.90;;;;;;5096589;28;20227;-80
2023/01/29 13:19:25;;;;;;;3.47;1.90;;;25.80;99.90;;;;;;5072999;28;20206;-81
2023/01/29 13:21:58;;;;;;;2.10;1.40;;;25.80;99.90;;;;;;5073064;28;20273;-81
2023/01/29 13:24:34;;;;;;;3.60;1.83;;;25.80;99.90;;;;;;5071974;28;20711;-81
2023/01/29 13:27:06;;;;;;;2.30;1.52;;;25.80;99.90;;;;;;5072071;28;20214;-81
2023/01/29 13:29:38;;;;;;;3.72;1.70;;;25.70;99.90;;;;;;5072929;28;20196;-81
2023/01/29 13:32:12;;;;;;;1.63;1.52;;;25.70;99.90;;;;;;5077778;28;20734;-81
2023/01/29 13:34:49;;;;;;;3.10;1.60;;;25.70;99.90;;;;;;5073840;28;20206;-81
2023/01/29 13:37:27;;;;;;;3.25;1.55;;;25.80;99.90;;;;;;5075433;28;20200;-80
2023/01/29 13:39:59;;;;;;;2.22;1.52;;;25.80;99.90;;;;;;5062439;28;20629;-81
2023/01/29 13:42:44;;;;;;;1.60;1.42;;;25.80;99.90;;;;;;5080241;28;20202;-81
2023/01/29 13:45:22;;;;;;;2.80;1.40;;;25.80;99.90;;;;;;5079808;28;20597;-81
2023/01/29 13:48:10;;;;;;;2.53;1.38;;;25.80;99.90;;;;;;5063670;28;20196;-81
2023/01/29 13:50:42;;;;;;;1.85;1.45;;;25.80;99.90;;;;;;5059028;28;20253;-81
2023/01/29 13:53:24;;;;;;;2.53;1.50;;;25.80;99.90;;;;;;5085647;28;20650;-83
2023/01/29 13:55:56;;;;;;;2.67;1.52;;;25.80;99.90;;;;;;5074086;28;20220;-82
2023/01/29 13:58:57;;;;;;;1.52;1.40;;;25.80;99.90;;;;;;5061192;28;20188;-81
2023/01/29 14:02:05;;;;;;;1.88;1.27;;;25.80;99.90;;;;;;5076434;28;20557;-81